createdAt,value
2022-08-20T00:03:21.162Z,15.89
2022-08-20T00:08:30.147Z,15.93
2022-08-20T00:13:38.071Z,15.89
2022-08-20T00:18:42.013Z,15.88
2022-08-20T00:23:48.527Z,15.82
2022-08-20T00:28:52.115Z,15.66
2022-08-20T00:33:56.063Z,15.76
2022-08-20T00:39:01.496Z,15.76
2022-08-20T00:44:10.290Z,15.82
2022-08-20T00:49:18.709Z,15.80
2022-08-20T00:54:27.313Z,15.88
2022-08-20T00:59:34.675Z,15.93
2022-08-20T01:04:40.745Z,15.91
2022-08-20T01:09:57.485Z,15.84
2022-08-20T01:15:05.179Z,15.79
2022-08-20T01:20:46.603Z,15.89
2022-08-20T01:26:18.032Z,15.58
2022-08-20T01:31:24.689Z,15.42
2022-08-20T01:36:32.619Z,15.52
2022-08-20T01:42:09.479Z,15.57
2022-08-20T01:47:24.445Z,15.72
2022-08-20T01:52:37.621Z,15.66
2022-08-20T01:57:41.660Z,15.78
2022-08-20T02:02:44.984Z,15.79
2022-08-20T02:07:49.076Z,15.88
2022-08-20T02:12:53.297Z,15.94
2022-08-20T02:17:58.460Z,15.77
2022-08-20T02:23:01.770Z,15.85
2022-08-20T02:28:10.057Z,15.95
2022-08-20T02:33:17.006Z,15.93
2022-08-20T02:38:20.512Z,15.96
2022-08-20T02:43:26.545Z,15.93
2022-08-20T02:48:30.478Z,15.91
2022-08-20T02:53:38.829Z,15.90
2022-08-20T02:58:43.072Z,15.92
2022-08-20T03:03:46.797Z,15.78
2022-08-20T03:08:49.998Z,15.83
2022-08-20T03:13:55.612Z,15.84
2022-08-20T03:19:00.801Z,15.92
2022-08-20T03:24:04.584Z,15.89
2022-08-20T03:29:07.827Z,15.80
2022-08-20T03:34:11.280Z,15.76
2022-08-20T03:39:14.422Z,15.66
2022-08-20T03:44:17.935Z,15.67
2022-08-20T03:49:21.757Z,15.72
2022-08-20T03:54:24.856Z,15.74
2022-08-20T03:59:34.550Z,15.70
2022-08-20T04:04:39.154Z,15.71
2022-08-20T04:09:42.406Z,15.74
2022-08-20T04:14:46.621Z,15.61
2022-08-20T04:19:50.141Z,15.69
2022-08-20T04:24:53.353Z,15.63
2022-08-20T04:29:57.965Z,15.66
2022-08-20T04:35:01.625Z,15.69
2022-08-20T04:40:29.056Z,15.80
2022-08-20T04:45:33.854Z,15.80
2022-08-20T04:50:39.406Z,15.64
2022-08-20T04:55:43.795Z,15.76
2022-08-20T05:00:52.438Z,15.65
2022-08-20T05:05:55.816Z,15.69
2022-08-20T05:11:27.591Z,15.69
2022-08-20T05:16:24.445Z,15.71
2022-08-20T05:21:27.529Z,15.83
2022-08-20T05:26:30.841Z,16.01
2022-08-20T05:31:35.400Z,15.98
2022-08-20T05:36:47.010Z,16.01
2022-08-20T05:41:53.700Z,16.12
2022-08-20T05:46:57.057Z,15.88
2022-08-20T05:52:01.919Z,15.97
2022-08-20T05:57:05.849Z,16.05
2022-08-20T06:02:28.921Z,16.19
2022-08-20T06:07:32.334Z,16.12
2022-08-20T06:12:36.664Z,16.23
2022-08-20T06:17:41.270Z,16.28
2022-08-20T06:22:46.569Z,16.48
2022-08-20T06:27:49.696Z,16.62
2022-08-20T06:32:53.296Z,16.57
2022-08-20T06:37:58.361Z,16.60
2022-08-20T06:43:03.026Z,16.51
2022-08-20T06:48:10.625Z,16.20
2022-08-20T06:53:21.524Z,16.46
2022-08-20T06:58:36.889Z,16.35
2022-08-20T07:03:55.542Z,16.21
2022-08-20T07:08:59.593Z,16.24
2022-08-20T07:14:06.197Z,16.17
2022-08-20T07:24:52.767Z,16.24
2022-08-20T07:49:05.176Z,16.32
2022-08-20T07:54:54.828Z,16.36
2022-08-20T08:12:16.631Z,16.36
2022-08-20T08:29:55.697Z,16.75
2022-08-20T08:55:13.183Z,16.70
2022-08-20T09:00:52.784Z,16.45
2022-08-20T09:07:02.483Z,16.79
2022-08-20T09:12:19.302Z,16.67
2022-08-20T09:17:35.317Z,16.78
2022-08-20T09:23:00.096Z,16.71
2022-08-20T09:28:09.941Z,16.86
2022-08-20T09:33:31.270Z,16.79
2022-08-20T09:39:03.579Z,17.03
2022-08-20T09:44:42.357Z,16.79
2022-08-20T10:02:46.836Z,16.79
2022-08-20T10:14:25.204Z,17.84
2022-08-20T10:20:33.733Z,17.24
2022-08-20T10:32:02.217Z,17.93
2022-08-20T10:37:28.989Z,17.74
2022-08-20T10:42:56.664Z,18.35
2022-08-20T10:54:43.496Z,18.52
2022-08-20T11:00:09.895Z,19.11
2022-08-20T11:18:16.285Z,19.35
2022-08-20T11:29:56.311Z,19.39
2022-08-20T11:35:48.117Z,19.29
2022-08-20T11:41:04.166Z,19.21
2022-08-20T11:46:26.552Z,19.73
2022-08-20T12:10:19.985Z,20.14
2022-08-20T12:15:47.550Z,19.62
2022-08-20T12:27:46.424Z,20.33
2022-08-20T12:45:15.921Z,21.18
2022-08-20T12:57:48.562Z,21.24
2022-08-20T13:03:05.676Z,22.30
2022-08-20T13:20:34.032Z,22.88
2022-08-20T13:26:09.995Z,22.97
2022-08-20T13:31:23.196Z,22.62
2022-08-20T13:36:51.457Z,23.08
2022-08-20T13:47:48.102Z,21.96
2022-08-20T13:53:01.267Z,21.74
2022-08-20T13:58:31.122Z,21.89
2022-08-20T14:20:18.642Z,18.52
2022-08-20T14:32:05.691Z,18.25
2022-08-20T14:38:09.804Z,17.29
2022-08-20T14:49:52.405Z,17.09
2022-08-20T14:55:49.864Z,16.73
2022-08-20T15:01:44.820Z,15.62
2022-08-20T15:07:08.198Z,14.92
2022-08-20T15:12:14.129Z,14.74
2022-08-20T15:17:27.665Z,14.58
2022-08-20T15:22:30.721Z,14.83
2022-08-20T15:27:34.078Z,14.92
2022-08-20T15:32:37.298Z,14.70
2022-08-20T15:37:47.348Z,14.81
2022-08-20T15:42:50.526Z,14.91
2022-08-20T15:48:01.221Z,14.97
2022-08-20T15:53:11.422Z,14.87
2022-08-20T15:58:24.525Z,15.14
2022-08-20T16:03:58.601Z,15.22
2022-08-20T16:09:20.460Z,15.21
2022-08-20T16:14:27.533Z,15.21
2022-08-20T16:19:55.082Z,15.22
2022-08-20T16:24:58.770Z,15.46
2022-08-20T16:30:09.978Z,15.33
2022-08-20T16:35:34.242Z,15.45
2022-08-20T16:40:49.600Z,15.46
2022-08-20T16:46:25.892Z,15.58
2022-08-20T16:51:39.216Z,15.53
2022-08-20T16:56:45.662Z,15.44
2022-08-20T17:02:07.025Z,15.59
2022-08-20T17:07:13.089Z,15.65
2022-08-20T17:12:29.281Z,15.73
2022-08-20T17:17:36.633Z,15.75
2022-08-20T17:22:50.944Z,15.77
2022-08-20T17:27:54.054Z,15.69
2022-08-20T17:33:02.426Z,15.70
2022-08-20T17:38:06.022Z,15.72
2022-08-20T17:43:10.983Z,15.72
2022-08-20T17:48:37.482Z,15.64
2022-08-20T17:53:43.518Z,15.55
2022-08-20T17:58:55.937Z,15.55
2022-08-20T18:04:04.343Z,15.53
2022-08-20T18:09:29.663Z,15.61
2022-08-20T18:14:38.629Z,15.62
2022-08-20T18:20:03.950Z,15.59
2022-08-20T18:25:15.850Z,15.65
2022-08-20T18:30:22.871Z,15.63
2022-08-20T18:35:46.119Z,15.55
2022-08-20T18:40:54.457Z,15.56
2022-08-20T18:46:15.217Z,15.59
2022-08-20T18:51:24.921Z,15.64
2022-08-20T18:56:36.949Z,15.64
2022-08-20T19:01:42.851Z,15.67
2022-08-20T19:06:57.599Z,15.64
2022-08-20T19:12:24.333Z,15.59
2022-08-20T19:18:04.873Z,15.64
2022-08-20T19:23:19.541Z,15.62
2022-08-20T19:28:32.557Z,15.64
2022-08-20T19:33:44.133Z,15.81
2022-08-20T19:38:54.777Z,16.00
2022-08-20T19:43:58.118Z,15.86
2022-08-20T19:49:31.305Z,15.80
2022-08-20T19:54:43.193Z,15.80
2022-08-20T19:59:55.709Z,15.72
2022-08-20T20:05:21.449Z,15.51
2022-08-20T20:10:39.734Z,15.57
2022-08-20T20:16:09.222Z,15.68
2022-08-20T20:21:45.775Z,15.83
2022-08-20T20:34:19.577Z,15.89
2022-08-20T20:40:03.379Z,15.90
2022-08-20T20:58:56.332Z,15.91
2022-08-20T21:10:32.295Z,15.60
2022-08-20T21:22:04.836Z,15.81
2022-08-20T21:27:42.365Z,15.70
2022-08-20T21:38:44.790Z,15.45
2022-08-20T21:44:34.123Z,15.60
2022-08-20T21:50:27.238Z,15.57
2022-08-20T22:02:04.061Z,15.39
2022-08-20T22:13:56.929Z,15.77
2022-08-20T22:19:37.417Z,15.45
2022-08-20T22:37:37.755Z,15.39
2022-08-20T22:49:20.715Z,15.57
2022-08-20T22:55:25.609Z,15.46
2022-08-20T23:13:33.460Z,15.20
2022-08-20T23:19:29.831Z,15.33
2022-08-20T23:25:57.895Z,15.51
2022-08-20T23:33:04.526Z,15.30
2022-08-20T23:38:22.432Z,15.38
2022-08-20T23:44:36.557Z,15.05
2022-08-20T23:51:23.562Z,15.00
2022-08-20T23:56:57.223Z,15.07
